Time;durP1;ratioP1;P1;durP2;ratioP2;P2;SDS_P1;SDS_P2;PMS_P1;PMS_P2;Temp;Humidity;BMP_temperature;BMP_pressure;BME280_temperature;BME280_humidity;BME280_pressure;Samples;Min_cycle;Max_cycle;Signal;HPM_P1;HPM_P2
2021/03/14 00:00:11;;;;;;;1.83;1.10;;;;;;;2.94;74.79;98502.44;5061862;28;20261;-66
2021/03/14 00:02:39;;;;;;;2.33;1.00;;;;;;;2.99;74.83;98499.44;5063962;28;20196;-66
2021/03/14 00:05:09;;;;;;;2.47;1.40;;;;;;;3.02;74.41;98504.53;5043623;28;20213;-66
2021/03/14 00:07:36;;;;;;;2.30;0.97;;;;;;;3.03;74.58;98511.50;5060295;28;20195;-66
2021/03/14 00:10:05;;;;;;;23.17;17.03;;;;;;;2.85;74.68;98476.63;5060875;28;20197;-66
2021/03/14 00:12:32;;;;;;;1999.90;872.10;;;;;;;3.08;74.65;98502.28;5059586;28;20204;-67
2021/03/14 00:15:00;;;;;;;129.47;44.63;;;;;;;3.13;74.81;98512.56;5044748;28;20224;-66
2021/03/14 00:17:27;;;;;;;16.87;8.03;;;;;;;3.18;74.92;98506.91;5061674;28;20206;-66
2021/03/14 00:19:55;;;;;;;23.23;10.47;;;;;;;3.20;75.74;98508.47;5060667;28;20209;-66
2021/03/14 00:22:23;;;;;;;18.03;7.37;;;;;;;3.17;75.01;98497.25;5056951;28;21918;-66
2021/03/14 00:24:50;;;;;;;10.33;4.63;;;;;;;3.30;75.11;98511.28;5061484;28;20213;-66
2021/03/14 00:27:18;;;;;;;5.97;2.97;;;;;;;3.33;75.85;98513.72;5061406;28;20311;-66
2021/03/14 00:29:45;;;;;;;2.87;1.70;;;;;;;3.14;76.57;98486.88;5060772;28;20283;-66
2021/03/14 00:32:13;;;;;;;3.30;1.87;;;;;;;3.28;76.42;98511.41;5057893;28;20208;-66
2021/03/14 00:34:41;;;;;;;4.77;2.00;;;;;;;3.30;76.36;98512.13;5056209;28;20244;-66
2021/03/14 00:37:10;;;;;;;3.33;2.00;;;;;;;3.10;76.37;98481.81;5058221;28;20212;-67
2021/03/14 00:39:37;;;;;;;4.07;1.70;;;;;;;3.15;77.10;98513.28;5061442;28;20224;-66
2021/03/14 00:42:06;;;;;;;4.27;2.30;;;;;;;3.09;77.49;98511.94;5043189;28;20224;-67
2021/03/14 00:44:34;;;;;;;4.70;2.43;;;;;;;2.95;79.34;98509.44;5058900;28;20694;-67
2021/03/14 00:47:01;;;;;;;1.83;1.60;;;;;;;3.00;79.48;98503.78;5040620;28;20615;-67
2021/03/14 00:49:29;;;;;;;2.77;2.00;;;;;;;2.98;79.49;98508.34;5043906;28;20209;-67
2021/03/14 00:51:56;;;;;;;2.83;2.10;;;;;;;3.00;79.10;98504.63;5059805;28;20646;-66
2021/03/14 00:54:25;;;;;;;2.83;1.80;;;;;;;3.06;79.09;98511.28;5038790;28;20200;-66
2021/03/14 00:56:54;;;;;;;2.50;1.60;;;;;;;2.94;79.99;98514.84;5036046;28;20296;-67
2021/03/14 00:59:21;;;;;;;3.20;1.90;;;;;;;2.88;80.61;98507.34;5055805;28;20234;-67
2021/03/14 01:01:48;;;;;;;2.60;1.40;;;;;;;2.86;81.03;98510.09;5058771;28;20294;-66
2021/03/14 01:04:16;;;;;;;2.13;1.43;;;;;;;2.84;80.96;98508.53;5058485;28;20201;-67
2021/03/14 01:06:43;;;;;;;1.87;1.40;;;;;;;2.91;80.92;98501.81;5037645;28;20226;-67
2021/03/14 01:09:12;;;;;;;3.43;1.73;;;;;;;2.83;81.23;98509.50;5057109;28;20253;-67
2021/03/14 01:11:40;;;;;;;2.63;1.40;;;;;;;2.80;81.65;98516.72;5057094;28;20688;-67
2021/03/14 01:14:19;;;;;;;4.87;1.80;;;;;;;2.84;81.27;98512.03;5055102;28;20219;-67
2021/03/14 01:16:56;;;;;;;3.27;1.67;;;;;;;2.78;82.20;98515.13;5056758;28;20212;-66
2021/03/14 01:19:26;;;;;;;1.40;1.30;;;;;;;2.72;82.78;98513.72;5046977;28;20679;-66
2021/03/14 01:21:54;;;;;;;6.50;1.50;;;;;;;2.70;83.08;98520.94;5067725;28;20868;-66
2021/03/14 01:24:21;;;;;;;2.03;1.63;;;;;;;2.60;83.47;98504.03;5064242;28;20215;-67
2021/03/14 01:26:49;;;;;;;3.70;1.30;;;;;;;2.62;83.36;98504.75;5059552;28;20231;-67
2021/03/14 01:29:17;;;;;;;2.10;1.43;;;;;;;2.60;83.79;98509.31;5060212;28;20229;-66
2021/03/14 01:31:44;;;;;;;4.73;1.37;;;;;;;2.63;84.31;98513.56;5071643;28;20220;-66
2021/03/14 01:34:12;;;;;;;2.77;2.10;;;;;;;2.72;83.82;98519.03;5067806;28;20254;-66
2021/03/14 01:36:40;;;;;;;2.27;1.60;;;;;;;2.76;83.30;98517.03;5073635;28;20758;-66
2021/03/14 01:39:07;;;;;;;2.23;1.70;;;;;;;2.75;83.69;98516.16;5073995;28;20278;-66
2021/03/14 01:41:34;;;;;;;7.00;2.00;;;;;;;2.75;83.85;98524.13;5073481;28;20197;-67
2021/03/14 01:44:02;;;;;;;4.30;1.80;;;;;;;2.75;83.37;98518.81;5071176;28;20201;-67
2021/03/14 01:46:29;;;;;;;4.87;1.97;;;;;;;2.78;83.52;98523.06;5053446;28;20289;-67
2021/03/14 01:49:13;;;;;;;5.53;1.80;;;;;;;2.90;83.02;98516.03;5056928;28;20296;-67
2021/03/14 01:51:41;;;;;;;90.30;52.77;;;;;;;2.86;83.35;98526.00;5073688;28;20215;-67
2021/03/14 01:54:09;;;;;;;70.17;30.23;;;;;;;2.95;82.85;98524.50;5071349;28;20196;-67
2021/03/14 01:56:37;;;;;;;4.00;2.80;;;;;;;3.01;82.60;98518.72;5072919;28;20308;-67
2021/03/14 01:59:05;;;;;;;3.90;2.60;;;;;;;3.02;83.07;98517.78;5055342;28;20728;-67
2021/03/14 02:01:32;;;;;;;4.10;2.40;;;;;;;3.05;82.87;98522.84;5058449;28;20312;-67
2021/03/14 02:04:00;;;;;;;6.63;3.60;;;;;;;3.12;82.67;98524.13;5065652;28;20253;-67
2021/03/14 02:06:27;;;;;;;5.70;2.67;;;;;;;3.15;83.69;98523.03;5067685;28;20196;-67
2021/03/14 02:08:55;;;;;;;7.67;2.50;;;;;;;3.24;82.97;98512.59;5068672;28;20288;-67
2021/03/14 02:11:25;;;;;;;6.93;2.57;;;;;;;3.34;82.21;98532.16;5059269;28;20196;-68
2021/03/14 02:13:58;;;;;;;7.37;3.50;;;;;;;3.23;81.83;98521.50;5062025;28;20686;-66
2021/03/14 02:16:29;;;;;;;11.00;2.87;;;;;;;3.00;81.77;98488.72;5067778;28;20228;-67
2021/03/14 02:19:01;;;;;;;5.43;2.70;;;;;;;3.23;82.03;98525.97;5059305;28;20239;-66
2021/03/14 02:21:32;;;;;;;3.77;1.73;;;;;;;3.15;82.24;98526.53;5067351;28;20312;-66
2021/03/14 02:24:02;;;;;;;7.73;3.17;;;;;;;3.09;82.21;98519.88;5070666;28;20283;-66
2021/03/14 02:26:34;;;;;;;5.30;2.43;;;;;;;3.04;82.30;98510.56;5072008;28;20234;-67
2021/03/14 02:29:04;;;;;;;4.80;2.20;;;;;;;3.04;82.32;98523.81;5072480;28;20254;-67
2021/03/14 02:31:31;;;;;;;7.67;3.57;;;;;;;3.00;83.12;98523.19;5067130;28;20240;-67
2021/03/14 02:34:04;;;;;;;8.93;2.20;;;;;;;2.99;83.20;98523.31;5072357;28;20723;-67
2021/03/14 02:36:35;;;;;;;4.17;2.30;;;;;;;3.14;82.16;98519.56;5072510;28;20252;-67
2021/03/14 02:39:04;;;;;;;3.90;2.27;;;;;;;3.17;82.17;98527.28;5058410;28;20225;-66
2021/03/14 02:41:31;;;;;;;4.77;2.43;;;;;;;3.17;81.92;98529.09;5072172;28;20610;-66
2021/03/14 02:44:00;;;;;;;6.57;2.20;;;;;;;3.11;81.73;98514.47;5069120;28;20209;-66
2021/03/14 02:46:29;;;;;;;7.17;2.60;;;;;;;3.13;81.24;98517.84;5071701;28;20292;-67
2021/03/14 02:48:58;;;;;;;4.97;2.30;;;;;;;3.27;81.20;98536.25;5048452;28;20201;-67
2021/03/14 02:51:26;;;;;;;10.23;2.13;;;;;;;3.29;81.24;98525.50;5059233;28;20216;-66
2021/03/14 02:53:54;;;;;;;10.90;2.20;;;;;;;3.25;81.20;98532.84;5072177;28;20202;-66
2021/03/14 02:56:22;;;;;;;3.70;2.03;;;;;;;3.11;81.57;98528.56;5071740;28;20234;-66
2021/03/14 02:58:50;;;;;;;4.03;1.80;;;;;;;3.06;81.68;98537.81;5072214;28;20207;-66
2021/03/14 03:01:18;;;;;;;3.17;1.93;;;;;;;3.07;82.06;98535.06;5071756;28;20594;-66
2021/03/14 03:03:47;;;;;;;4.67;2.17;;;;;;;3.19;81.31;98543.91;5061743;28;20205;-66
2021/03/14 03:06:14;;;;;;;4.47;2.37;;;;;;;3.03;81.53;98527.41;5065279;28;20194;-66
2021/03/14 03:08:43;;;;;;;5.07;2.50;;;;;;;2.99;82.32;98547.16;5061809;28;20675;-66
2021/03/14 03:11:14;;;;;;;6.60;2.70;;;;;;;2.97;82.36;98549.06;5060617;28;20208;-67
2021/03/14 03:13:42;;;;;;;3.53;2.00;;;;;;;3.01;82.34;98546.09;5054243;28;20209;-67
2021/03/14 03:16:15;;;;;;;5.17;2.10;;;;;;;2.88;82.77;98544.44;5071590;28;20220;-66
2021/03/14 03:18:44;;;;;;;3.50;2.03;;;;;;;2.97;82.72;98551.72;5059807;28;20554;-67
2021/03/14 03:21:13;;;;;;;3.83;1.90;;;;;;;2.96;82.44;98539.44;5069274;28;20279;-66
2021/03/14 03:23:42;;;;;;;9.50;2.40;;;;;;;2.97;82.20;98549.94;5066280;28;20218;-66
2021/03/14 03:26:10;;;;;;;4.50;2.13;;;;;;;2.97;82.29;98557.03;5069536;28;20679;-67
2021/03/14 03:28:37;;;;;;;3.10;1.90;;;;;;;2.80;83.22;98559.09;5070307;28;20301;-66
2021/03/14 03:31:04;;;;;;;3.50;1.77;;;;;;;2.71;82.93;98535.03;5068187;28;20654;-67
2021/03/14 03:33:33;;;;;;;5.07;2.33;;;;;;;2.69;83.51;98571.41;5063440;28;20192;-67
2021/03/14 03:36:00;;;;;;;3.33;1.60;;;;;;;2.58;84.32;98560.72;5061776;28;20316;-67
2021/03/14 03:38:31;;;;;;;6.73;3.17;;;;;;;2.39;85.48;98558.50;5063995;28;20220;-67
2021/03/14 03:40:58;;;;;;;14.23;7.03;;;;;;;2.54;84.64;98568.03;5058425;28;20228;-67
2021/03/14 03:43:32;;;;;;;7.00;2.20;;;;;;;2.55;84.72;98553.00;5057423;28;20285;-66
2021/03/14 03:46:00;;;;;;;3.67;1.80;;;;;;;2.72;84.42;98558.78;5068955;28;20197;-66
2021/03/14 03:48:33;;;;;;;9.03;3.13;;;;;;;2.77;84.58;98559.31;5052753;28;20618;-67
2021/03/14 03:51:03;;;;;;;6.37;2.57;;;;;;;2.84;84.40;98558.88;5056625;28;20279;-66
2021/03/14 03:53:33;;;;;;;3.77;2.10;;;;;;;2.98;83.84;98569.31;5068681;28;20208;-67
2021/03/14 03:56:02;;;;;;;2.97;1.67;;;;;;;2.98;83.43;98567.53;5068713;28;20224;-67
2021/03/14 03:58:31;;;;;;;2.43;1.80;;;;;;;2.97;83.75;98564.97;5070126;28;20284;-67
2021/03/14 04:01:01;;;;;;;3.27;2.23;;;;;;;2.96;83.53;98563.28;5064066;28;20552;-66
2021/03/14 04:03:31;;;;;;;5.73;1.50;;;;;;;3.01;83.13;98571.75;5067122;28;20630;-67
2021/03/14 04:05:59;;;;;;;4.97;2.60;;;;;;;3.04;83.17;98564.41;5062329;28;20220;-66
2021/03/14 04:08:29;;;;;;;3.17;1.70;;;;;;;3.00;82.77;98570.91;5060191;28;20209;-66
2021/03/14 04:10:58;;;;;;;3.17;2.00;;;;;;;2.95;83.11;98574.84;5051634;28;20205;-67
2021/03/14 04:13:27;;;;;;;3.30;1.80;;;;;;;3.00;82.72;98575.38;5055841;28;20209;-68
2021/03/14 04:15:54;;;;;;;3.53;2.00;;;;;;;2.99;82.37;98577.16;5068571;28;20294;-68
2021/03/14 04:18:22;;;;;;;3.27;1.97;;;;;;;2.96;82.72;98576.53;5068547;28;20291;-68
2021/03/14 04:21:13;;;;;;;2.20;1.50;;;;;;;2.95;82.63;98578.34;5061232;28;20667;-68
2021/03/14 04:23:43;;;;;;;4.20;1.37;;;;;;;2.89;82.63;98577.94;5065526;28;20213;-67
2021/03/14 04:26:12;;;;;;;1.57;1.40;;;;;;;2.92;82.26;98581.22;5059204;28;20280;-67
2021/03/14 04:28:41;;;;;;;4.90;1.70;;;;;;;3.00;82.11;98581.50;5060626;28;20248;-68
2021/03/14 04:31:10;;;;;;;1.67;1.40;;;;;;;3.02;81.72;98584.91;5036822;28;20211;-67
2021/03/14 04:33:44;;;;;;;3.97;1.20;;;;;;;2.99;81.73;98586.94;5063413;28;20197;-67
2021/03/14 04:36:13;;;;;;;3.33;1.27;;;;;;;2.97;81.70;98591.50;5064974;28;20305;-66
2021/03/14 04:38:42;;;;;;;1.57;1.10;;;;;;;3.02;81.82;98589.34;5067930;28;20534;-67
2021/03/14 04:41:11;;;;;;;3.93;1.70;;;;;;;3.00;81.65;98594.75;5060051;28;20212;-67
2021/03/14 04:43:41;;;;;;;2.97;1.57;;;;;;;2.98;81.83;98603.78;5064053;28;20199;-67
2021/03/14 04:46:12;;;;;;;1.33;1.10;;;;;;;3.01;81.63;98595.63;5066403;28;20508;-67
2021/03/14 04:48:39;;;;;;;1.73;1.30;;;;;;;2.98;81.59;98598.50;5056646;28;20288;-67
2021/03/14 04:51:10;;;;;;;2.40;1.57;;;;;;;2.90;81.46;98595.53;5061118;28;20200;-69
2021/03/14 04:53:38;;;;;;;1.87;1.30;;;;;;;2.95;81.30;98604.00;5058821;28;20276;-67
2021/03/14 04:56:06;;;;;;;3.10;1.33;;;;;;;2.93;81.42;98601.47;5067528;28;20224;-67
2021/03/14 04:58:36;;;;;;;3.50;1.50;;;;;;;2.99;81.10;98611.63;5061643;28;20220;-67
2021/03/14 05:01:03;;;;;;;1.47;1.10;;;;;;;3.03;81.43;98604.31;5049155;28;20203;-67
2021/03/14 05:03:32;;;;;;;3.30;1.60;;;;;;;3.10;81.06;98610.88;5067168;28;20216;-67
2021/03/14 05:06:01;;;;;;;2.27;1.40;;;;;;;3.14;80.77;98615.00;5058573;28;20205;-67
2021/03/14 05:08:29;;;;;;;3.50;1.60;;;;;;;3.13;80.63;98612.47;5048073;28;20755;-67
2021/03/14 05:10:56;;;;;;;2.27;1.27;;;;;;;3.16;80.56;98622.84;5059456;28;20209;-67
2021/03/14 05:13:24;;;;;;;1.40;1.10;;;;;;;3.18;80.11;98624.44;5058029;28;20205;-67
2021/03/14 05:15:53;;;;;;;2.33;1.30;;;;;;;3.18;80.38;98627.09;5060758;28;20706;-67
2021/03/14 05:18:21;;;;;;;2.67;1.47;;;;;;;3.17;80.26;98629.84;5055061;28;20287;-67
2021/03/14 05:20:49;;;;;;;2.13;1.43;;;;;;;3.17;80.23;98627.19;5056235;28;20205;-67
2021/03/14 05:23:18;;;;;;;2.53;1.40;;;;;;;3.14;80.87;98636.22;5063079;28;20689;-68
2021/03/14 05:25:45;;;;;;;13.77;7.93;;;;;;;3.17;80.32;98637.81;5051407;28;20201;-67
2021/03/14 05:28:13;;;;;;;4.33;2.30;;;;;;;3.22;80.25;98633.84;5069434;28;20253;-67
2021/03/14 05:30:43;;;;;;;4.90;2.57;;;;;;;3.20;81.95;98641.06;5068045;28;20196;-67
2021/03/14 05:33:12;;;;;;;7.93;3.80;;;;;;;3.24;81.35;98645.19;5069038;28;20572;-66
2021/03/14 05:35:40;;;;;;;3.03;1.47;;;;;;;3.27;81.85;98646.78;5068916;28;20584;-67
2021/03/14 05:38:07;;;;;;;4.00;1.40;;;;;;;3.03;81.26;98615.75;5057156;28;20205;-67
2021/03/14 05:40:35;;;;;;;10.80;5.77;;;;;;;3.21;81.71;98658.69;5065578;28;20197;-67
2021/03/14 05:43:04;;;;;;;5.00;2.70;;;;;;;3.21;81.65;98652.53;5060372;28;20726;-67
2021/03/14 05:45:32;;;;;;;2.50;1.73;;;;;;;3.24;81.29;98657.59;5068414;28;20199;-67
2021/03/14 05:47:59;;;;;;;2.40;1.53;;;;;;;3.06;81.72;98657.09;5068565;28;20207;-67
2021/03/14 05:50:29;;;;;;;1.90;1.43;;;;;;;3.14;80.87;98659.22;5065965;28;20209;-67
2021/03/14 05:52:57;;;;;;;5.33;2.00;;;;;;;3.24;81.13;98663.75;5068619;28;20710;-67
2021/03/14 05:55:25;;;;;;;4.00;2.00;;;;;;;3.30;80.75;98673.94;5069244;28;20570;-67
2021/03/14 05:57:54;;;;;;;1.23;1.10;;;;;;;3.34;80.60;98678.06;5061297;28;20208;-67
2021/03/14 06:00:26;;;;;;;1.53;1.40;;;;;;;3.38;80.40;98681.34;5058359;28;20290;-67
2021/03/14 06:02:55;;;;;;;2.07;1.70;;;;;;;3.40;80.07;98677.63;5061458;28;20841;-67
2021/03/14 06:05:24;;;;;;;1.47;1.37;;;;;;;3.07;80.80;98662.31;5057372;28;20280;-67
2021/03/14 06:07:52;;;;;;;3.13;1.57;;;;;;;3.20;80.89;98682.66;5067088;28;20251;-67
2021/03/14 06:10:20;;;;;;;2.47;1.30;;;;;;;3.20;80.45;98682.66;5063327;28;21013;-67
2021/03/14 06:12:48;;;;;;;1.37;1.27;;;;;;;3.17;80.58;98693.50;5061502;28;20208;-66
2021/03/14 06:15:16;;;;;;;1.63;1.27;;;;;;;3.11;80.47;98678.88;5064718;28;20204;-67
2021/03/14 06:17:43;;;;;;;3.40;1.50;;;;;;;2.93;80.31;98656.28;5059578;28;20279;-67
2021/03/14 06:20:36;;;;;;;2.00;1.03;;;;;;;3.08;80.58;98695.00;5071290;28;20200;-67
2021/03/14 06:23:11;;;;;;;1.30;1.20;;;;;;;3.03;80.83;98697.94;5062961;28;20295;-67
2021/03/14 06:25:39;;;;;;;1.33;1.10;;;;;;;3.02;80.27;98700.69;5071767;28;20203;-66
2021/03/14 06:28:07;;;;;;;1.10;1.00;;;;;;;3.02;80.55;98695.41;5068963;28;20244;-67
2021/03/14 06:30:35;;;;;;;1.43;1.13;;;;;;;2.99;80.66;98700.91;5070907;28;20188;-67
2021/03/14 06:33:05;;;;;;;1.67;1.00;;;;;;;2.97;80.42;98700.19;5070565;28;20663;-67
2021/03/14 06:35:44;;;;;;;0.70;0.70;;;;;;;2.95;80.54;98704.75;5051764;28;20220;-66
2021/03/14 06:38:20;;;;;;;2.03;1.20;;;;;;;2.90;80.60;98690.97;5070867;28;20230;-67
2021/03/14 06:40:47;;;;;;;1.43;1.10;;;;;;;2.95;81.09;98710.03;5071447;28;20192;-66
2021/03/14 06:43:16;;;;;;;0.93;0.83;;;;;;;2.96;80.46;98711.72;5069487;28;20204;-66
2021/03/14 06:45:45;;;;;;;1.37;1.20;;;;;;;2.76;80.32;98676.88;5051927;28;20770;-66
2021/03/14 06:48:23;;;;;;;1.53;0.97;;;;;;;2.95;80.69;98718.84;5071261;28;20224;-65
2021/03/14 06:50:51;;;;;;;1.30;1.10;;;;;;;2.95;80.63;98715.34;5050810;28;20582;-66
2021/03/14 06:53:20;;;;;;;5.90;1.10;;;;;;;3.00;80.57;98718.50;5063347;28;20281;-66
2021/03/14 06:55:49;;;;;;;1.50;1.23;;;;;;;3.01;80.18;98725.50;5070521;28;20689;-67
2021/03/14 06:58:24;;;;;;;1.07;1.00;;;;;;;3.02;80.21;98725.41;5069529;28;20616;-67
2021/03/14 07:01:13;;;;;;;2.03;1.10;;;;;;;2.73;80.37;98685.00;5070127;28;20282;-67
2021/03/14 07:03:42;;;;;;;1.10;1.00;;;;;;;2.98;80.69;98723.06;5070677;28;20205;-66
2021/03/14 07:06:21;;;;;;;1.50;1.10;;;;;;;2.98;80.78;98731.03;5070978;28;20196;-66
2021/03/14 07:08:51;;;;;;;2.23;0.90;;;;;;;3.06;80.31;98734.00;5070171;28;20200;-66
2021/03/14 07:11:37;;;;;;;2.30;1.40;;;;;;;3.11;80.63;98737.19;5070454;28;20193;-66
2021/03/14 07:14:05;;;;;;;86.33;59.17;;;;;;;2.80;80.34;98688.13;5065260;28;20228;-66
2021/03/14 07:16:41;;;;;;;337.57;117.87;;;;;;;3.19;80.30;98756.06;5060460;28;20305;-66
2021/03/14 07:19:08;;;;;;;5.73;3.30;;;;;;;3.26;80.38;98756.47;5078635;28;20521;-66
2021/03/14 07:21:35;;;;;;;4.87;2.50;;;;;;;3.32;81.10;98759.53;5063068;28;20300;-66
2021/03/14 07:24:05;;;;;;;2.50;1.90;;;;;;;3.16;81.12;98729.75;5063969;28;20212;-65
2021/03/14 07:26:43;;;;;;;3.90;1.67;;;;;;;3.51;81.18;98758.25;5060357;28;20551;-65
2021/03/14 07:29:11;;;;;;;1.37;1.27;;;;;;;3.43;81.44;98745.53;5062621;28;20619;-66
2021/03/14 07:31:39;;;;;;;1.53;1.43;;;;;;;3.48;81.08;98751.38;5069645;28;20329;-65
2021/03/14 07:34:07;;;;;;;2.00;1.80;;;;;;;3.63;80.80;98767.97;5071568;28;20553;-66
2021/03/14 07:36:34;;;;;;;2.50;1.40;;;;;;;3.79;80.39;98781.88;5070750;28;20250;-65
2021/03/14 07:39:06;;;;;;;1.60;1.33;;;;;;;3.76;80.47;98771.47;5069933;28;20265;-66
2021/03/14 07:41:34;;;;;;;2.33;1.97;;;;;;;3.73;80.56;98751.31;5068012;28;20220;-66
2021/03/14 07:44:02;;;;;;;3.60;1.57;;;;;;;3.92;80.24;98780.00;5063476;28;20536;-66
2021/03/14 07:46:30;;;;;;;2.83;2.10;;;;;;;3.93;80.08;98784.38;5067529;28;20201;-65
2021/03/14 07:49:00;;;;;;;1.80;1.60;;;;;;;3.87;80.27;98779.50;5063973;28;20251;-65
2021/03/14 07:51:29;;;;;;;2.97;1.80;;;;;;;3.93;80.52;98783.50;5068146;28;20196;-65
2021/03/14 07:54:02;;;;;;;13.40;11.03;;;;;;;4.08;80.31;98798.34;5061608;28;20192;-66
2021/03/14 07:56:33;;;;;;;2.83;2.23;;;;;;;4.20;79.85;98793.94;5060803;28;20227;-66
2021/03/14 07:59:01;;;;;;;1.90;1.47;;;;;;;4.31;79.72;98792.22;5066481;28;20197;-65
2021/03/14 08:01:31;;;;;;;1.73;1.43;;;;;;;4.41;79.18;98797.69;5064943;28;20520;-66
2021/03/14 08:04:00;;;;;;;1.70;1.30;;;;;;;4.46;79.30;98792.03;5068528;28;20193;-66
2021/03/14 08:06:49;;;;;;;1.10;1.00;;;;;;;4.40;78.65;98798.66;5067938;28;20719;-65
2021/03/14 08:09:45;;;;;;;2.23;1.10;;;;;;;4.43;79.10;98809.06;5063704;28;20211;-65
2021/03/14 08:12:19;;;;;;;1.53;1.20;;;;;;;4.54;78.82;98808.25;5062474;28;20530;-65
2021/03/14 08:14:48;;;;;;;2.00;1.50;;;;;;;4.61;78.62;98807.69;5070461;28;20201;-66
2021/03/14 08:17:17;;;;;;;1.60;1.30;;;;;;;4.70;77.85;98811.47;5053488;28;20276;-66
2021/03/14 08:19:45;;;;;;;1.67;1.30;;;;;;;4.81;78.03;98810.66;5066010;28;20725;-65
2021/03/14 08:22:44;;;;;;;1.63;1.30;;;;;;;4.88;77.50;98814.53;5043223;28;20217;-65
2021/03/14 08:25:26;;;;;;;2.00;1.50;;;;;;;4.99;77.57;98818.09;5065235;28;20204;-65
2021/03/14 08:28:00;;;;;;;2.23;1.30;;;;;;;5.08;77.68;98823.66;5049472;28;20327;-65
2021/03/14 08:30:43;;;;;;;2.57;1.50;;;;;;;5.15;77.34;98832.88;5056024;28;20304;-65
2021/03/14 08:33:44;;;;;;;1.73;1.27;;;;;;;5.16;76.94;98823.94;5036342;28;20619;-67
2021/03/14 08:36:33;;;;;;;3.33;1.67;;;;;;;5.21;77.16;98833.28;5042952;28;20291;-67
2021/03/14 08:39:06;;;;;;;3.57;1.50;;;;;;;5.30;77.25;98837.88;5043424;28;20228;-66
2021/03/14 08:41:40;;;;;;;2.30;1.10;;;;;;;5.35;76.44;98840.19;5061055;28;20731;-66
2021/03/14 08:44:31;;;;;;;2.00;1.33;;;;;;;5.16;76.78;98807.97;5045944;28;20201;-66
2021/03/14 08:47:22;;;;;;;1.80;1.30;;;;;;;5.39;76.50;98852.28;5045099;28;20292;-65
2021/03/14 08:49:59;;;;;;;1.40;1.10;;;;;;;5.41;75.67;98849.50;5038579;28;20682;-66
2021/03/14 08:52:30;;;;;;;4.07;1.47;;;;;;;5.40;76.20;98853.97;5038709;28;20205;-66
2021/03/14 08:55:09;;;;;;;1.73;1.40;;;;;;;5.49;76.06;98860.41;5043238;28;20231;-66
2021/03/14 08:57:38;;;;;;;2.77;1.40;;;;;;;5.48;75.68;98856.88;5041511;28;20260;-66
2021/03/14 09:00:14;;;;;;;2.40;1.10;;;;;;;5.45;75.97;98858.94;5054089;28;20224;-66
2021/03/14 09:02:50;;;;;;;0.90;0.90;;;;;;;5.46;75.72;98842.00;5034051;28;20300;-66
2021/03/14 09:05:32;;;;;;;1.87;1.57;;;;;;;5.66;75.46;98865.28;5059480;28;20198;-65
2021/03/14 09:08:02;;;;;;;2.80;1.40;;;;;;;5.69;75.54;98865.03;5049042;28;20283;-66
2021/03/14 09:10:37;;;;;;;2.50;1.47;;;;;;;5.74;75.72;98868.19;5056465;28;20213;-66
2021/03/14 09:13:12;;;;;;;1.57;1.20;;;;;;;5.71;75.23;98879.06;5043847;28;20258;-66
2021/03/14 09:15:50;;;;;;;1.23;1.13;;;;;;;5.73;75.34;98881.63;5049113;28;20201;-67
2021/03/14 09:18:34;;;;;;;183.23;67.03;;;;;;;5.72;74.54;98878.09;5062411;28;20213;-66
2021/03/14 09:21:10;;;;;;;3.37;3.07;;;;;;;5.85;74.67;98876.19;5044356;28;20307;-66
2021/03/14 09:23:44;;;;;;;4.23;2.93;;;;;;;5.94;75.20;98879.13;5059425;28;20207;-67
2021/03/14 09:26:27;;;;;;;7.90;3.57;;;;;;;5.98;74.00;98877.91;5033046;28;20211;-66
2021/03/14 09:28:56;;;;;;;6.73;1.73;;;;;;;6.01;74.82;98885.66;5057405;28;20300;-67
2021/03/14 09:31:25;;;;;;;7.13;1.63;;;;;;;6.06;74.31;98870.16;5045842;28;20225;-67
2021/03/14 09:34:00;;;;;;;1.30;1.20;;;;;;;6.19;73.46;98879.72;5038253;28;20277;-67
2021/03/14 09:36:33;;;;;;;2.73;1.40;;;;;;;6.22;73.38;98883.97;5048307;28;20237;-67
2021/03/14 09:39:04;;;;;;;1.30;1.20;;;;;;;6.25;73.14;98877.53;5049739;28;21202;-67
2021/03/14 09:41:44;;;;;;;1.17;1.07;;;;;;;6.22;72.80;98889.28;5040652;28;20271;-67
2021/03/14 09:44:40;;;;;;;1.53;1.20;;;;;;;6.22;72.86;98886.63;5044483;28;20240;-66
2021/03/14 09:47:14;;;;;;;2.10;0.97;;;;;;;6.19;72.50;98892.22;5036667;28;20198;-67
2021/03/14 09:50:00;;;;;;;1.40;1.30;;;;;;;6.35;72.78;98900.66;5045701;28;20705;-67
2021/03/14 09:52:30;;;;;;;4.63;1.10;;;;;;;6.36;73.18;98901.50;5048634;28;20209;-67
2021/03/14 09:55:22;;;;;;;1.13;1.07;;;;;;;6.46;72.78;98922.00;5048050;28;20661;-67
2021/03/14 09:57:50;;;;;;;7.70;6.80;;;;;;;6.51;72.83;98913.63;5043926;28;20214;-67
2021/03/14 10:00:25;;;;;;;2.10;1.00;;;;;;;6.46;70.48;98915.81;5039538;28;20237;-67
2021/03/14 10:03:03;;;;;;;0.80;0.80;;;;;;;6.44;71.36;98915.09;5059518;28;20188;-67
2021/03/14 10:05:45;;;;;;;1.27;1.10;;;;;;;6.44;71.06;98915.94;5040351;28;20650;-67
2021/03/14 10:08:18;;;;;;;3.50;1.00;;;;;;;6.47;70.77;98921.03;5061500;28;20197;-71
2021/03/14 10:10:46;;;;;;;0.90;0.90;;;;;;;6.29;70.25;98903.81;5040080;28;20290;-68
2021/03/14 10:13:20;;;;;;;2.40;1.87;;;;;;;6.58;71.09;98925.47;5055060;28;20260;-68
2021/03/14 10:15:50;;;;;;;1.13;1.03;;;;;;;6.63;70.46;98930.44;5062072;28;20246;-68
2021/03/14 10:18:20;;;;;;;0.80;0.80;;;;;;;6.69;70.79;98916.59;5038699;28;20226;-68
2021/03/14 10:20:48;;;;;;;1.33;0.90;;;;;;;6.73;70.52;98918.88;5068009;28;20196;-68
2021/03/14 10:23:24;;;;;;;1.10;1.00;;;;;;;6.90;70.33;98922.00;5035654;28;20210;-68
2021/03/14 10:26:12;;;;;;;4.03;0.80;;;;;;;6.95;70.31;98931.31;5054941;28;20220;-67
2021/03/14 10:28:58;;;;;;;0.97;0.90;;;;;;;6.96;70.09;98926.84;5045049;28;20204;-68
2021/03/14 10:31:45;;;;;;;1.30;0.90;;;;;;;6.97;68.43;98929.38;5038614;28;20619;-67
2021/03/14 10:34:21;;;;;;;2.20;0.90;;;;;;;7.09;69.54;98939.06;5038931;28;20210;-67
2021/03/14 10:36:49;;;;;;;2.50;0.90;;;;;;;7.01;68.13;98933.47;5050246;28;20686;-67
2021/03/14 10:39:24;;;;;;;1.37;0.83;;;;;;;7.12;67.41;98938.81;5046992;28;20211;-67
2021/03/14 10:41:57;;;;;;;1.50;1.10;;;;;;;7.16;68.54;98934.91;5045434;28;20202;-67
2021/03/14 10:44:32;;;;;;;2.57;1.10;;;;;;;7.28;68.04;98940.19;5056631;28;20199;-67
2021/03/14 10:47:15;;;;;;;1.03;1.00;;;;;;;7.30;67.44;98946.25;5043025;28;20637;-67
2021/03/14 10:50:04;;;;;;;536.63;169.40;;;;;;;7.43;66.66;98941.59;5062175;28;20202;-67
2021/03/14 10:52:32;;;;;;;134.23;53.80;;;;;;;7.57;66.89;98953.75;5047979;28;20210;-66
2021/03/14 10:55:27;;;;;;;5.43;3.10;;;;;;;7.61;64.54;98945.34;5045562;28;20202;-66
2021/03/14 10:58:09;;;;;;;6.93;3.70;;;;;;;7.78;65.13;98957.28;5062415;28;20378;-66
2021/03/14 11:00:41;;;;;;;1.40;1.30;;;;;;;7.89;66.96;98956.38;5041477;28;20284;-65
2021/03/14 11:03:24;;;;;;;1.63;1.30;;;;;;;8.04;66.98;98961.25;5046351;28;20299;-67
2021/03/14 11:06:06;;;;;;;0.83;0.83;;;;;;;8.09;65.17;98963.53;5065900;28;20201;-66
2021/03/14 11:08:49;;;;;;;1.33;0.70;;;;;;;8.18;63.37;98970.75;5032829;28;20623;-68
2021/03/14 11:11:17;;;;;;;1.37;1.27;;;;;;;8.20;62.96;98978.63;5045747;28;20262;-67
2021/03/14 11:13:51;;;;;;;0.97;0.70;;;;;;;8.36;64.24;98973.69;5051040;28;20272;-67
2021/03/14 11:17:06;;;;;;;0.70;0.70;;;;;;;8.39;61.13;98979.63;5035819;28;20223;-68
2021/03/14 11:19:40;;;;;;;0.70;0.70;;;;;;;8.34;61.42;98976.50;5053841;28;20294;-68
2021/03/14 11:22:08;;;;;;;0.80;0.77;;;;;;;8.45;62.80;98983.59;5044782;28;20662;-68
2021/03/14 11:24:45;;;;;;;2.90;1.00;;;;;;;8.36;61.13;98963.84;5047093;28;20489;-67
2021/03/14 11:27:14;;;;;;;1.23;0.50;;;;;;;8.58;60.17;98984.22;5059808;28;20692;-67
2021/03/14 11:29:42;;;;;;;0.77;0.77;;;;;;;8.66;56.14;98986.22;5050127;28;20194;-67
2021/03/14 11:32:16;;;;;;;4.27;0.90;;;;;;;8.56;59.49;98986.16;5042047;28;20223;-67
2021/03/14 11:34:57;;;;;;;0.57;0.57;;;;;;;8.70;55.00;98987.63;5047427;28;20292;-67
2021/03/14 11:37:45;;;;;;;4.67;1.10;;;;;;;8.59;55.47;98990.41;5066691;28;20235;-67
2021/03/14 11:40:37;;;;;;;1.80;1.40;;;;;;;8.63;55.68;98997.19;5047666;28;20294;-66
2021/03/14 11:43:33;;;;;;;0.67;0.67;;;;;;;8.83;58.63;98998.09;5024124;28;20213;-66
2021/03/14 11:46:12;;;;;;;7.43;1.27;;;;;;;8.71;55.55;99000.03;5042989;28;20209;-66
2021/03/14 11:48:40;;;;;;;3.80;0.80;;;;;;;8.87;55.71;99004.84;5045534;28;20549;-66
2021/03/14 11:51:13;;;;;;;0.70;0.70;;;;;;;8.87;53.82;99005.72;5062420;28;20209;-67
2021/03/14 11:53:42;;;;;;;0.70;0.70;;;;;;;8.70;53.05;98983.13;5037318;28;20681;-67
2021/03/14 11:56:09;;;;;;;0.60;0.60;;;;;;;8.76;54.15;98997.78;5043933;28;20204;-67
2021/03/14 11:58:48;;;;;;;0.50;0.50;;;;;;;8.77;53.32;98998.63;5040057;28;20610;-68
2021/03/14 12:01:18;;;;;;;0.60;0.60;;;;;;;8.83;54.91;98993.59;5039490;28;20208;-67
2021/03/14 12:03:48;;;;;;;0.50;0.50;;;;;;;8.90;56.32;99005.47;5056122;28;20221;-67